createdAt,value
2019-03-22T00:00:28.508Z,20.70
2019-03-22T00:02:58.010Z,20.60
2019-03-22T00:05:27.328Z,20.80
2019-03-22T00:07:56.595Z,20.80
2019-03-22T00:10:25.897Z,20.90
2019-03-22T00:12:55.162Z,21.30
2019-03-22T00:15:24.447Z,21.40
2019-03-22T00:17:53.745Z,21.40
2019-03-22T00:20:23.019Z,21.50
2019-03-22T00:22:52.307Z,21.50
2019-03-22T00:25:21.582Z,21.90
2019-03-22T00:27:51.167Z,22.10
2019-03-22T00:30:20.543Z,22.30
2019-03-22T00:32:49.822Z,23.30
2019-03-22T00:35:19.120Z,23.20
2019-03-22T00:37:48.409Z,23.50
2019-03-22T00:40:17.688Z,23.30
2019-03-22T00:42:46.968Z,23.40
2019-03-22T00:45:16.402Z,23.20
2019-03-22T00:47:45.698Z,23.50
2019-03-22T00:50:15.034Z,23.80
2019-03-22T00:52:44.688Z,24.10
2019-03-22T00:55:14.076Z,24.40
2019-03-22T00:57:43.390Z,24.20
2019-03-22T01:00:14.303Z,24.30
2019-03-22T01:02:43.595Z,24.50
2019-03-22T01:05:13.624Z,24.40
2019-03-22T01:07:43.251Z,24.50
2019-03-22T01:10:14.496Z,24.80
2019-03-22T01:12:44.079Z,25.10
2019-03-22T01:15:14.091Z,25.20
2019-03-22T01:17:43.459Z,25.60
2019-03-22T01:20:14.466Z,25.90
2019-03-22T01:22:43.766Z,25.90
2019-03-22T01:25:13.129Z,26.30
2019-03-22T01:27:42.402Z,27.00
2019-03-22T01:30:14.294Z,26.90
2019-03-22T01:32:43.839Z,27.60
2019-03-22T01:35:13.971Z,27.80
2019-03-22T01:37:43.251Z,28.00
2019-03-22T01:40:15.158Z,28.10
2019-03-22T01:42:44.491Z,28.10
2019-03-22T01:45:15.412Z,28.30
2019-03-22T01:47:44.678Z,28.20
2019-03-22T01:50:16.007Z,28.80
2019-03-22T01:52:45.284Z,29.20
2019-03-22T01:55:14.571Z,29.80
2019-03-22T01:57:53.085Z,29.80
2019-03-22T02:00:16.149Z,29.60
2019-03-22T02:02:45.434Z,29.80
2019-03-22T02:05:14.963Z,29.80
2019-03-22T02:07:44.507Z,29.80
2019-03-22T02:10:14.408Z,30.00
2019-03-22T02:12:43.699Z,29.90
2019-03-22T02:15:14.499Z,29.90
2019-03-22T02:17:43.909Z,30.10
2019-03-22T02:20:14.785Z,30.70
2019-03-22T02:22:44.304Z,31.00
2019-03-22T02:25:13.727Z,30.90
2019-03-22T02:27:43.611Z,31.10
2019-03-22T02:30:16.938Z,30.90
2019-03-22T02:32:46.509Z,30.50
2019-03-22T02:35:28.286Z,30.60
2019-03-22T02:37:47.063Z,30.50
2019-03-22T02:40:16.441Z,30.90
2019-03-22T02:42:45.736Z,31.10
2019-03-22T02:45:16.687Z,32.00
2019-03-22T02:47:45.953Z,32.30
2019-03-22T02:50:19.955Z,32.10
2019-03-22T02:52:46.369Z,31.90
2019-03-22T02:55:15.697Z,32.00
2019-03-22T02:57:44.994Z,31.70
2019-03-22T03:00:16.119Z,31.70
2019-03-22T03:02:45.396Z,31.90
2019-03-22T03:05:16.257Z,32.30
2019-03-22T03:07:45.707Z,33.10
2019-03-22T03:10:15.934Z,33.10
2019-03-22T03:12:45.670Z,33.50
2019-03-22T03:15:16.093Z,33.70
2019-03-22T03:17:45.346Z,33.20
2019-03-22T03:20:17.723Z,33.30
2019-03-22T03:22:47.194Z,33.50
2019-03-22T03:25:16.876Z,33.70
2019-03-22T03:27:46.236Z,34.00
2019-03-22T03:30:17.729Z,34.20
2019-03-22T03:32:47.012Z,34.90
2019-03-22T03:35:16.430Z,35.40
2019-03-22T03:37:46.051Z,35.80
2019-03-22T03:40:15.748Z,37.00
2019-03-22T03:42:45.033Z,37.00
2019-03-22T03:45:33.604Z,36.60
2019-03-22T03:48:05.318Z,36.60
2019-03-22T03:50:34.757Z,37.30
2019-03-22T03:53:04.771Z,37.80
2019-03-22T03:55:34.118Z,37.20
2019-03-22T03:58:03.525Z,37.20
2019-03-22T04:00:32.916Z,36.30
2019-03-22T04:03:02.217Z,36.60
2019-03-22T04:05:31.502Z,37.20
2019-03-22T04:08:00.763Z,36.90
2019-03-22T04:10:30.301Z,36.50
2019-03-22T04:12:59.592Z,36.10
2019-03-22T04:15:28.871Z,35.70
2019-03-22T04:17:58.156Z,35.90
2019-03-22T04:20:27.807Z,35.10
2019-03-22T04:22:57.079Z,36.10
2019-03-22T04:25:26.380Z,35.60
2019-03-22T04:27:55.919Z,35.40
2019-03-22T04:30:25.212Z,35.80
2019-03-22T04:32:54.486Z,35.50
2019-03-22T04:35:23.771Z,35.60
2019-03-22T04:37:53.063Z,35.90
2019-03-22T04:40:24.775Z,36.70
2019-03-22T04:42:54.056Z,37.10
2019-03-22T04:45:25.992Z,37.10
2019-03-22T04:47:58.447Z,37.10
2019-03-22T04:50:29.368Z,37.30
2019-03-22T04:53:00.028Z,37.60
2019-03-22T04:55:30.558Z,38.00
2019-03-22T04:58:00.207Z,38.30
2019-03-22T05:00:29.863Z,39.40
2019-03-22T05:02:59.382Z,39.70
2019-03-22T05:05:28.832Z,39.50
2019-03-22T05:07:58.687Z,39.70
2019-03-22T05:10:28.332Z,39.10
2019-03-22T05:12:59.942Z,38.00
2019-03-22T05:15:31.678Z,37.90
2019-03-22T05:18:02.490Z,38.00
2019-03-22T05:20:34.386Z,38.40
2019-03-22T05:23:05.078Z,38.50
2019-03-22T05:25:35.800Z,38.60
2019-03-22T05:28:07.423Z,38.90
2019-03-22T05:30:59.596Z,39.90
2019-03-22T05:33:29.141Z,39.90
2019-03-22T05:35:58.417Z,40.90
2019-03-22T05:38:27.696Z,41.30
2019-03-22T05:40:56.975Z,40.90
2019-03-22T05:43:26.350Z,41.70
2019-03-22T05:45:55.630Z,41.90
2019-03-22T05:48:24.918Z,42.10
2019-03-22T05:50:54.212Z,42.70
2019-03-22T05:53:23.494Z,42.90
2019-03-22T05:55:52.767Z,42.40
2019-03-22T05:58:22.063Z,42.80
2019-03-22T06:00:51.339Z,42.30
2019-03-22T06:03:20.632Z,42.80
2019-03-22T06:05:49.932Z,43.20
2019-03-22T06:08:19.215Z,42.00
2019-03-22T06:10:48.554Z,41.20
2019-03-22T06:13:17.850Z,41.80
2019-03-22T06:15:47.199Z,42.10
2019-03-22T06:18:16.479Z,41.50
2019-03-22T06:20:46.063Z,41.90
2019-03-22T06:23:16.172Z,50.60
2019-03-22T06:25:45.956Z,42.80
2019-03-22T06:28:15.296Z,40.70
2019-03-22T06:30:44.587Z,40.80
2019-03-22T06:33:13.875Z,40.70
2019-03-22T06:35:43.159Z,40.10
2019-03-22T06:38:12.443Z,39.90
2019-03-22T06:40:41.728Z,39.70
2019-03-22T06:43:11.023Z,39.00
2019-03-22T06:45:40.294Z,38.70
2019-03-22T06:48:09.584Z,38.60
2019-03-22T06:50:38.861Z,37.70
2019-03-22T06:53:08.151Z,37.30
2019-03-22T06:55:37.423Z,36.20
2019-03-22T06:58:07.007Z,36.60
2019-03-22T07:00:36.287Z,36.10
2019-03-22T07:03:05.572Z,35.60
2019-03-22T07:05:35.106Z,34.90
2019-03-22T07:08:04.383Z,35.20
2019-03-22T07:10:33.894Z,33.70
2019-03-22T07:13:03.419Z,34.30
2019-03-22T07:15:32.699Z,34.80
2019-03-22T07:18:01.984Z,33.60
2019-03-22T07:20:31.282Z,33.30
2019-03-22T07:23:00.827Z,32.70
2019-03-22T07:25:30.436Z,32.80
2019-03-22T07:27:59.843Z,31.90
2019-03-22T07:30:29.122Z,32.20
2019-03-22T07:32:58.411Z,31.60
2019-03-22T07:35:27.707Z,31.00
2019-03-22T07:37:56.987Z,30.60
2019-03-22T07:40:26.267Z,31.20
2019-03-22T07:42:55.568Z,30.10
2019-03-22T07:45:24.843Z,29.30
2019-03-22T07:47:55.872Z,28.70
2019-03-22T07:50:25.132Z,26.90
2019-03-22T07:52:54.435Z,27.30
2019-03-22T07:55:23.719Z,26.70
2019-03-22T07:57:53.003Z,26.00
2019-03-22T08:00:30.841Z,24.90
2019-03-22T08:02:53.531Z,24.80
2019-03-22T08:05:23.144Z,24.90
2019-03-22T08:07:52.752Z,23.90
2019-03-22T08:10:22.055Z,23.40
2019-03-22T08:12:51.679Z,24.10
2019-03-22T08:15:29.115Z,22.10
2019-03-22T08:17:58.689Z,21.50
2019-03-22T08:20:28.159Z,21.20
2019-03-22T08:22:57.507Z,21.40
2019-03-22T08:25:26.810Z,21.50
2019-03-22T08:27:56.095Z,21.20
2019-03-22T08:30:25.390Z,20.20
2019-03-22T08:32:54.671Z,20.20
2019-03-22T08:35:24.059Z,20.00
2019-03-22T08:37:53.352Z,18.60
2019-03-22T08:40:22.631Z,18.90
2019-03-22T08:42:51.976Z,18.80
2019-03-22T08:45:21.583Z,17.40
2019-03-22T08:47:50.885Z,17.60
2019-03-22T08:50:20.493Z,17.20
2019-03-22T08:52:49.793Z,16.80
2019-03-22T08:55:19.078Z,17.70
2019-03-22T08:57:48.372Z,16.00
2019-03-22T09:00:18.186Z,15.90
2019-03-22T09:02:49.732Z,14.80
2019-03-22T09:05:18.532Z,14.60
2019-03-22T09:07:47.863Z,13.50
2019-03-22T09:10:17.250Z,12.80
2019-03-22T09:12:46.586Z,13.30
2019-03-22T09:15:15.928Z,12.70
2019-03-22T09:17:45.237Z,12.60
2019-03-22T09:20:14.605Z,12.20
2019-03-22T09:22:43.877Z,12.00
2019-03-22T09:25:13.319Z,12.00
2019-03-22T09:27:42.606Z,11.20
2019-03-22T09:30:15.235Z,11.10
2019-03-22T09:32:44.527Z,11.60
2019-03-22T09:35:13.967Z,11.10
2019-03-22T09:37:43.255Z,10.90
2019-03-22T09:40:12.711Z,11.30
2019-03-22T09:42:42.270Z,10.20
2019-03-22T09:45:14.199Z,10.60
2019-03-22T09:47:42.871Z,8.70
2019-03-22T09:50:12.998Z,9.80
2019-03-22T09:52:42.355Z,8.20
2019-03-22T09:55:13.827Z,7.50
2019-03-22T09:57:42.992Z,7.20
2019-03-22T10:00:34.943Z,7.30
2019-03-22T10:03:05.051Z,7.80
2019-03-22T10:05:34.446Z,7.10
2019-03-22T10:08:03.780Z,7.20
2019-03-22T10:10:33.333Z,6.90
2019-03-22T10:13:02.723Z,6.60
2019-03-22T10:15:31.982Z,6.10
2019-03-22T10:18:01.349Z,5.80
2019-03-22T10:20:30.635Z,5.20
2019-03-22T10:22:59.988Z,4.30
2019-03-22T10:25:29.272Z,4.30
2019-03-22T10:27:58.852Z,3.50
2019-03-22T10:30:28.481Z,3.50
2019-03-22T10:32:57.751Z,2.80
2019-03-22T10:35:27.149Z,2.30
2019-03-22T10:38:00.984Z,3.00
2019-03-22T10:40:27.441Z,2.70
2019-03-22T10:42:56.775Z,1.50
2019-03-22T10:45:26.093Z,1.70
2019-03-22T10:47:55.367Z,2.10
2019-03-22T10:50:24.733Z,2.50
2019-03-22T10:52:54.429Z,1.80
2019-03-22T10:55:30.218Z,1.70
2019-03-22T10:57:55.591Z,2.30
2019-03-22T11:00:25.009Z,2.70
2019-03-22T11:02:54.295Z,3.10
2019-03-22T11:05:23.588Z,2.70
2019-03-22T11:07:52.876Z,3.30
2019-03-22T11:10:22.495Z,2.60
2019-03-22T11:12:51.833Z,1.90
2019-03-22T11:15:21.161Z,2.10
2019-03-22T11:17:50.443Z,1.40
2019-03-22T11:20:20.004Z,1.80
2019-03-22T11:22:49.612Z,1.40
2019-03-22T11:25:18.918Z,1.20
2019-03-22T11:27:48.199Z,1.00
2019-03-22T11:30:18.238Z,2.70
2019-03-22T11:32:47.840Z,3.20
2019-03-22T11:35:17.127Z,2.70
2019-03-22T11:37:46.407Z,3.60
2019-03-22T11:40:17.443Z,2.40
2019-03-22T11:42:46.979Z,3.10
2019-03-22T11:45:21.186Z,3.70
2019-03-22T11:47:50.987Z,4.00
2019-03-22T11:50:20.300Z,4.00
2019-03-22T11:52:49.819Z,3.10
2019-03-22T11:55:19.111Z,3.30
2019-03-22T11:57:48.398Z,2.60
2019-03-22T12:00:27.487Z,2.40
2019-03-22T12:02:56.767Z,2.80
2019-03-22T12:05:26.379Z,2.50
2019-03-22T12:07:55.679Z,2.10
2019-03-22T12:10:25.268Z,3.40
2019-03-22T12:12:54.595Z,3.20
2019-03-22T12:15:24.373Z,3.30
2019-03-22T12:17:53.741Z,2.90
2019-03-22T12:20:23.866Z,2.10
2019-03-22T12:22:53.167Z,2.50
2019-03-22T12:25:24.798Z,2.30
2019-03-22T12:27:54.097Z,2.40
2019-03-22T12:30:23.667Z,1.90
2019-03-22T12:32:52.967Z,1.90
2019-03-22T12:35:22.735Z,1.30
2019-03-22T12:37:52.027Z,1.80
2019-03-22T12:40:23.222Z,1.90
2019-03-22T12:42:53.447Z,1.40
2019-03-22T12:45:30.551Z,2.40
2019-03-22T12:48:00.240Z,1.70
2019-03-22T12:50:29.811Z,2.30
2019-03-22T12:52:59.357Z,1.90
2019-03-22T12:55:28.667Z,2.30
2019-03-22T12:57:59.491Z,1.80
2019-03-22T13:00:29.176Z,1.20
2019-03-22T13:02:58.462Z,2.20
2019-03-22T13:05:27.758Z,1.90
2019-03-22T13:07:57.059Z,2.20
2019-03-22T13:10:27.484Z,2.20
2019-03-22T13:12:57.247Z,2.20
2019-03-22T13:15:26.523Z,1.70
2019-03-22T13:17:55.825Z,1.50
2019-03-22T13:20:25.357Z,1.60
2019-03-22T13:22:54.654Z,1.60
2019-03-22T13:25:23.947Z,1.20
2019-03-22T13:27:53.240Z,1.00
2019-03-22T13:30:28.392Z,1.30
2019-03-22T13:32:57.692Z,1.00
2019-03-22T13:35:26.972Z,1.00
2019-03-22T13:37:56.264Z,1.00
2019-03-22T13:40:25.564Z,1.00
2019-03-22T13:42:54.919Z,1.00
2019-03-22T13:45:24.207Z,1.00
2019-03-22T13:47:53.511Z,1.00
2019-03-22T13:50:22.870Z,1.00
2019-03-22T13:52:52.267Z,1.00
2019-03-22T13:55:21.539Z,1.00
2019-03-22T13:57:50.839Z,1.00
2019-03-22T14:00:20.112Z,1.00
2019-03-22T14:02:49.399Z,1.00
2019-03-22T14:05:18.703Z,1.00
2019-03-22T14:07:48.001Z,1.00
2019-03-22T14:10:28.872Z,1.00
2019-03-22T14:12:59.800Z,1.00
2019-03-22T14:15:29.426Z,1.00
2019-03-22T14:17:59.043Z,1.00
2019-03-22T14:20:28.407Z,1.00
2019-03-22T14:22:57.689Z,1.00
2019-03-22T14:25:27.239Z,1.00
2019-03-22T14:27:56.516Z,1.00
2019-03-22T14:30:25.802Z,1.00
2019-03-22T14:32:55.755Z,1.00
2019-03-22T14:35:25.363Z,1.00
2019-03-22T14:37:54.971Z,1.00
2019-03-22T14:40:24.330Z,1.00
2019-03-22T14:42:53.610Z,1.00
2019-03-22T14:45:22.902Z,1.00
2019-03-22T14:47:52.175Z,1.00
2019-03-22T14:50:21.475Z,1.00
2019-03-22T14:52:50.755Z,1.00
2019-03-22T14:55:20.043Z,1.00
2019-03-22T14:57:52.234Z,1.00
2019-03-22T15:00:20.296Z,1.00
2019-03-22T15:02:49.594Z,1.00
2019-03-22T15:05:18.868Z,1.00
2019-03-22T15:07:48.423Z,1.00
2019-03-22T15:10:17.695Z,1.00
2019-03-22T15:12:46.988Z,1.00
2019-03-22T15:15:23.932Z,1.00
2019-03-22T15:18:00.584Z,1.00
2019-03-22T15:20:47.900Z,1.00
2019-03-22T15:23:24.718Z,1.00
2019-03-22T15:26:11.707Z,1.00
2019-03-22T15:28:58.952Z,1.00
2019-03-22T15:31:42.039Z,1.00
2019-03-22T15:34:15.763Z,1.00
2019-03-22T15:37:03.090Z,1.00
2019-03-22T15:39:50.471Z,1.00
2019-03-22T15:42:19.773Z,1.00
2019-03-22T15:44:49.084Z,1.00
2019-03-22T15:47:18.407Z,1.00
2019-03-22T15:49:47.995Z,1.00
2019-03-22T15:52:17.289Z,1.00
2019-03-22T15:54:46.566Z,1.00
2019-03-22T15:57:15.839Z,1.00
2019-03-22T15:59:45.128Z,1.00
2019-03-22T16:02:14.401Z,1.00
2019-03-22T16:04:43.698Z,1.00
2019-03-22T16:07:13.061Z,1.00
2019-03-22T16:09:42.335Z,1.00
2019-03-22T16:12:11.623Z,1.00
2019-03-22T16:14:41.211Z,1.00
2019-03-22T16:17:10.825Z,1.00
2019-03-22T16:19:40.183Z,1.00
2019-03-22T16:22:09.480Z,1.00
2019-03-22T16:24:38.755Z,1.00
2019-03-22T16:27:08.051Z,1.00
2019-03-22T16:29:37.343Z,1.00
2019-03-22T16:32:06.952Z,1.00
2019-03-22T16:34:36.226Z,1.00
2019-03-22T16:37:05.515Z,1.00
2019-03-22T16:39:34.791Z,1.00
2019-03-22T16:42:04.159Z,1.00
2019-03-22T16:44:33.431Z,1.00
2019-03-22T16:47:02.721Z,1.00
2019-03-22T16:49:32.231Z,1.00
2019-03-22T16:52:01.551Z,1.00
2019-03-22T16:54:30.943Z,1.00
2019-03-22T16:57:00.226Z,1.00
2019-03-22T16:59:29.499Z,1.00
2019-03-22T17:01:58.790Z,1.00
2019-03-22T17:04:28.083Z,1.00
2019-03-22T17:06:57.563Z,1.00
2019-03-22T17:09:27.087Z,1.00
2019-03-22T17:11:56.425Z,1.00
2019-03-22T17:14:25.710Z,1.00
2019-03-22T17:16:55.040Z,1.00
2019-03-22T17:19:24.668Z,1.00
2019-03-22T17:21:54.192Z,1.00
2019-03-22T17:24:23.482Z,1.00
2019-03-22T17:26:52.759Z,1.00
2019-03-22T17:29:22.044Z,1.00
2019-03-22T17:31:51.634Z,1.00
2019-03-22T17:34:20.946Z,1.00
2019-03-22T17:36:50.487Z,1.00
2019-03-22T17:39:20.095Z,1.00
2019-03-22T17:41:49.366Z,1.40
2019-03-22T17:44:18.736Z,2.20
2019-03-22T17:46:48.011Z,2.60
2019-03-22T17:49:17.311Z,2.90
2019-03-22T17:51:46.583Z,3.60
2019-03-22T17:54:15.882Z,4.00
2019-03-22T17:56:45.236Z,4.60
2019-03-22T17:59:14.507Z,4.90
2019-03-22T18:01:44.093Z,5.80
2019-03-22T18:04:13.444Z,5.70
2019-03-22T18:06:42.739Z,6.30
2019-03-22T18:09:12.018Z,6.50
2019-03-22T18:11:41.307Z,6.60
2019-03-22T18:14:10.578Z,6.90
2019-03-22T18:16:39.871Z,7.30
2019-03-22T18:19:09.486Z,7.60
2019-03-22T18:21:38.907Z,8.10
2019-03-22T18:24:08.180Z,8.20
2019-03-22T18:26:37.530Z,8.40
2019-03-22T18:29:07.159Z,8.80
2019-03-22T18:31:36.461Z,8.90
2019-03-22T18:34:05.755Z,9.10
2019-03-22T18:36:35.347Z,9.50
2019-03-22T18:39:07.889Z,10.00
2019-03-22T18:41:38.951Z,9.90
2019-03-22T18:44:08.243Z,10.10
2019-03-22T18:46:37.620Z,10.20
2019-03-22T18:49:06.987Z,10.30
2019-03-22T18:51:36.308Z,10.60
2019-03-22T18:54:05.988Z,10.90
2019-03-22T18:56:35.281Z,11.30
2019-03-22T18:59:04.591Z,11.40
2019-03-22T19:01:33.910Z,11.70
2019-03-22T19:04:03.458Z,11.90
2019-03-22T19:06:32.763Z,12.20
2019-03-22T19:09:02.055Z,12.40
2019-03-22T19:11:31.600Z,12.70
2019-03-22T19:14:00.917Z,13.00
2019-03-22T19:16:30.192Z,12.80
2019-03-22T19:18:59.491Z,13.20
2019-03-22T19:21:28.763Z,13.60
2019-03-22T19:23:58.067Z,13.90
2019-03-22T19:26:27.414Z,13.40
2019-03-22T19:28:56.721Z,13.70
2019-03-22T19:31:26.234Z,14.00
2019-03-22T19:33:55.530Z,14.40
2019-03-22T19:36:24.887Z,14.50
2019-03-22T19:38:54.417Z,14.40
2019-03-22T19:41:23.716Z,14.60
2019-03-22T19:43:53.002Z,14.90
2019-03-22T19:46:22.286Z,15.00
2019-03-22T19:48:51.827Z,14.90
2019-03-22T19:51:21.103Z,15.80
2019-03-22T19:53:50.402Z,15.40
2019-03-22T19:56:19.707Z,15.60
2019-03-22T19:58:48.994Z,15.40
2019-03-22T20:01:18.527Z,15.90
2019-03-22T20:03:47.816Z,15.90
2019-03-22T20:06:17.115Z,16.70
2019-03-22T20:08:46.403Z,16.40
2019-03-22T20:11:15.702Z,16.60
2019-03-22T20:13:45.005Z,16.70
2019-03-22T20:16:14.370Z,17.10
2019-03-22T20:18:43.894Z,17.30
2019-03-22T20:21:13.183Z,17.00
2019-03-22T20:23:53.065Z,17.50
2019-03-22T20:26:13.464Z,17.60
2019-03-22T20:28:42.770Z,18.20
2019-03-22T20:31:12.094Z,18.20
2019-03-22T20:33:41.416Z,17.60
2019-03-22T20:36:10.729Z,18.20
2019-03-22T20:38:40.088Z,18.40
2019-03-22T20:41:09.395Z,18.10
2019-03-22T20:43:38.798Z,18.50
2019-03-22T20:46:08.091Z,18.70
2019-03-22T20:48:37.399Z,18.70
2019-03-22T20:51:06.735Z,19.00
2019-03-22T20:53:36.311Z,19.20
2019-03-22T20:56:05.955Z,19.30
2019-03-22T20:58:35.492Z,19.70
2019-03-22T21:01:04.775Z,19.50
2019-03-22T21:03:34.287Z,19.50
2019-03-22T21:06:04.664Z,19.90
2019-03-22T21:08:34.122Z,19.80
2019-03-22T21:11:03.496Z,19.60
2019-03-22T21:13:32.851Z,20.20
2019-03-22T21:16:02.273Z,20.20
2019-03-22T21:18:31.871Z,20.10
2019-03-22T21:21:01.197Z,20.40
2019-03-22T21:23:36.422Z,20.20
2019-03-22T21:26:01.431Z,20.20
2019-03-22T21:28:30.714Z,20.60
2019-03-22T21:31:00.002Z,20.80
2019-03-22T21:33:29.297Z,20.60
2019-03-22T21:35:58.583Z,21.10
2019-03-22T21:38:27.862Z,21.10
2019-03-22T21:40:57.159Z,21.10
2019-03-22T21:43:26.456Z,21.50
2019-03-22T21:45:55.731Z,22.00
2019-03-22T21:48:25.026Z,21.50
2019-03-22T21:50:54.311Z,21.50
2019-03-22T21:53:23.927Z,21.70
2019-03-22T21:55:54.336Z,21.10
2019-03-22T21:58:23.831Z,21.60
2019-03-22T22:00:53.107Z,22.00
2019-03-22T22:03:22.669Z,22.20
2019-03-22T22:05:51.960Z,22.30
2019-03-22T22:08:21.246Z,22.10
2019-03-22T22:10:59.414Z,22.20
2019-03-22T22:13:21.511Z,22.40
2019-03-22T22:15:50.798Z,22.30
2019-03-22T22:18:20.311Z,23.30
2019-03-22T22:20:49.603Z,23.30
2019-03-22T22:23:19.376Z,23.50
2019-03-22T22:25:49.031Z,23.90
2019-03-22T22:28:18.399Z,23.60
2019-03-22T22:30:47.699Z,23.90
2019-03-22T22:33:17.247Z,24.50
2019-03-22T22:35:47.023Z,24.50
2019-03-22T22:38:16.386Z,24.40
2019-03-22T22:40:45.675Z,24.40
2019-03-22T22:43:14.946Z,24.50
2019-03-22T22:45:44.238Z,24.50
2019-03-22T22:48:13.510Z,24.50
2019-03-22T22:50:42.866Z,24.20
2019-03-22T22:53:12.154Z,24.90
2019-03-22T22:55:41.436Z,27.40
2019-03-22T22:58:10.969Z,28.00
2019-03-22T23:00:40.623Z,29.20
2019-03-22T23:03:10.183Z,25.80
2019-03-22T23:05:39.482Z,25.00
2019-03-22T23:08:08.771Z,24.80
2019-03-22T23:10:38.520Z,24.90
2019-03-22T23:13:07.837Z,25.20
2019-03-22T23:15:37.102Z,25.50
2019-03-22T23:18:06.397Z,25.50
2019-03-22T23:20:36.003Z,25.40
2019-03-22T23:23:05.294Z,25.60
2019-03-22T23:25:34.664Z,25.80
2019-03-22T23:28:04.019Z,25.80
2019-03-22T23:30:33.295Z,26.30
2019-03-22T23:33:02.928Z,26.60
2019-03-22T23:35:32.195Z,26.90
2019-03-22T23:38:01.482Z,27.00
2019-03-22T23:40:30.767Z,27.30
2019-03-22T23:43:00.051Z,26.90
2019-03-22T23:45:29.330Z,26.90
2019-03-22T23:47:58.602Z,27.10
2019-03-22T23:50:27.896Z,27.50
2019-03-22T23:52:57.183Z,27.80
2019-03-22T23:55:26.465Z,28.10
2019-03-22T23:57:55.757Z,28.10
